createdAt,value
2018-12-01T00:02:24.506Z,24
2018-12-01T00:12:32.274Z,16
2018-12-01T00:22:38.238Z,18
2018-12-01T00:32:47.373Z,18
2018-12-01T00:42:53.003Z,19
2018-12-01T00:53:01.183Z,19
2018-12-01T01:13:14.402Z,22
2018-12-01T01:23:21.576Z,24
2018-12-01T01:33:28.592Z,20
2018-12-01T01:43:37.100Z,23
2018-12-01T01:53:44.183Z,20
2018-12-01T02:03:53.665Z,25
2018-12-01T02:14:00.820Z,22
2018-12-01T02:24:09.430Z,25
2018-12-01T02:34:18.810Z,22
2018-12-01T02:44:26.089Z,28
2018-12-01T02:54:33.729Z,23
2018-12-01T03:04:42.026Z,22
2018-12-01T03:14:48.476Z,16
2018-12-01T03:24:56.624Z,19
2018-12-01T03:35:04.512Z,23
2018-12-01T03:45:11.333Z,21
2018-12-01T03:55:19.481Z,20
2018-12-01T04:05:27.924Z,23
2018-12-01T04:15:35.520Z,27
2018-12-01T04:25:42.513Z,17
2018-12-01T04:35:49.769Z,16
2018-12-01T04:45:56.258Z,17
2018-12-01T04:56:03.043Z,17
2018-12-01T05:06:08.706Z,17
2018-12-01T05:16:16.305Z,17
2018-12-01T05:26:21.832Z,15
2018-12-01T05:36:27.360Z,15
2018-12-01T05:46:34.814Z,17
2018-12-01T05:56:42.207Z,19
2018-12-01T06:06:50.075Z,23
2018-12-01T06:16:57.482Z,27
2018-12-01T06:27:04.022Z,18
2018-12-01T06:37:12.288Z,16
2018-12-01T06:47:19.031Z,15
2018-12-01T06:57:25.971Z,16
2018-12-01T07:07:33.565Z,15
2018-12-01T07:17:40.573Z,14
2018-12-01T07:27:46.413Z,13
2018-12-01T07:37:53.135Z,12
2018-12-01T07:48:02.181Z,14
2018-12-01T07:58:10.028Z,13
2018-12-01T08:08:17.756Z,13
2018-12-01T08:18:26.722Z,10
2018-12-01T08:28:34.816Z,13
2018-12-01T08:38:44.339Z,13
2018-12-01T08:48:50.672Z,12
2018-12-01T08:59:00.101Z,13
2018-12-01T09:09:06.666Z,14
2018-12-01T09:19:14.586Z,13
2018-12-01T09:29:20.874Z,12
2018-12-01T09:30:33.694Z,10
2018-12-01T09:40:42.858Z,11
2018-12-01T09:50:48.818Z,8
2018-12-01T10:00:57.579Z,9
2018-12-01T10:11:04.593Z,8
2018-12-01T10:21:12.751Z,11
2018-12-01T10:31:18.811Z,7
2018-12-01T10:41:26.774Z,10
2018-12-01T10:42:39.833Z,7
2018-12-01T10:52:47.429Z,7
2018-12-01T11:02:56.629Z,7
2018-12-01T11:13:02.766Z,6
2018-12-01T11:23:09.143Z,4
2018-12-01T11:33:16.918Z,5
2018-12-01T11:43:22.354Z,3
2018-12-01T11:45:36.294Z,11
2018-12-01T11:55:42.916Z,5
2018-12-01T12:05:53.036Z,8
2018-12-01T12:15:58.506Z,5
2018-12-01T12:26:07.272Z,4
2018-12-01T12:36:13.397Z,4
2018-12-01T12:46:19.264Z,4
2018-12-01T12:56:29.157Z,5
2018-12-01T13:06:37.976Z,4
2018-12-01T13:16:44.340Z,3
2018-12-01T13:26:53.132Z,4
2018-12-01T13:37:00.477Z,5
2018-12-01T13:47:07.315Z,5
2018-12-01T13:57:14.698Z,9
2018-12-01T14:07:22.150Z,12
2018-12-01T14:17:29.969Z,6
2018-12-01T14:27:38.966Z,71
2018-12-01T14:37:45.053Z,64
2018-12-01T14:47:52.782Z,24
2018-12-01T14:58:01.817Z,18
2018-12-01T15:08:10.806Z,32
2018-12-01T15:18:20.594Z,12
2018-12-01T15:28:29.012Z,14
2018-12-01T15:38:34.859Z,15
2018-12-01T15:48:41.920Z,5
2018-12-01T15:58:50.236Z,24
2018-12-01T16:08:56.646Z,22
2018-12-01T16:19:06.335Z,18
2018-12-01T16:29:14.890Z,17
2018-12-01T16:39:21.415Z,30
2018-12-01T16:49:30.788Z,18
2018-12-01T16:59:37.791Z,17
2018-12-01T17:09:46.160Z,24
2018-12-01T17:19:53.317Z,22
2018-12-01T17:30:00.195Z,15
2018-12-01T17:40:07.501Z,27
2018-12-01T17:50:15.354Z,24
2018-12-01T18:00:21.896Z,10
2018-12-01T18:10:30.684Z,8
2018-12-01T18:20:37.772Z,13
2018-12-01T18:30:45.360Z,9
2018-12-01T18:40:51.064Z,9
2018-12-01T18:50:57.809Z,9
2018-12-01T19:01:05.392Z,7
2018-12-01T19:11:13.104Z,10
2018-12-01T19:21:19.521Z,8
2018-12-01T19:31:26.370Z,12
2018-12-01T19:41:32.979Z,11
2018-12-01T19:51:40.124Z,9
2018-12-01T20:01:48.826Z,12
2018-12-01T20:11:55.947Z,10
2018-12-01T20:22:05.545Z,23
2018-12-01T20:32:13.133Z,12
2018-12-01T20:42:22.116Z,11
2018-12-01T20:52:26.899Z,14
2018-12-01T21:02:36.248Z,10
2018-12-01T21:12:43.240Z,10
2018-12-01T21:22:51.493Z,11
2018-12-01T21:32:58.028Z,12
2018-12-01T21:43:05.706Z,12
2018-12-01T21:53:15.063Z,13
2018-12-01T22:03:22.743Z,9
2018-12-01T22:13:28.645Z,11
2018-12-01T22:14:13.098Z,11
2018-12-01T22:24:19.901Z,11
2018-12-01T22:34:27.527Z,7
2018-12-01T22:44:35.771Z,10
2018-12-01T22:54:44.016Z,11
2018-12-01T23:04:49.012Z,11
2018-12-01T23:14:56.372Z,9
2018-12-01T23:25:04.180Z,9
2018-12-01T23:35:11.702Z,11
2018-12-01T23:45:20.528Z,9
2018-12-01T23:55:39.551Z,11
